createdAt,value
2022-08-29T00:00:04.571Z,8
2022-08-29T00:10:06.977Z,8
2022-08-29T00:20:09.130Z,6
2022-08-29T00:30:14.110Z,6
2022-08-29T00:40:22.274Z,7
2022-08-29T00:50:22.329Z,7
2022-08-29T01:00:29.347Z,9
2022-08-29T01:10:44.780Z,8
2022-08-29T01:20:41.514Z,7
2022-08-29T01:30:47.497Z,7
2022-08-29T01:40:52.134Z,7
2022-08-29T01:50:57.592Z,6
2022-08-29T02:01:03.557Z,7
2022-08-29T02:11:11.249Z,6
2022-08-29T02:21:16.916Z,5
2022-08-29T02:31:28.384Z,6
2022-08-29T02:41:29.897Z,8
2022-08-29T02:51:33.929Z,7
2022-08-29T03:01:40.635Z,7
2022-08-29T03:11:45.142Z,7
2022-08-29T03:21:51.163Z,8
2022-08-29T03:31:57.415Z,7
2022-08-29T03:42:04.068Z,8
2022-08-29T03:52:11.073Z,6
2022-08-29T04:02:12.595Z,10
2022-08-29T04:12:18.229Z,11
2022-08-29T04:22:23.066Z,10
2022-08-29T04:32:28.636Z,9
2022-08-29T04:42:34.242Z,9
2022-08-29T04:52:39.776Z,7
2022-08-29T05:02:45.300Z,7
2022-08-29T05:12:57.455Z,6
2022-08-29T05:22:58.527Z,7
2022-08-29T05:33:05.545Z,9
2022-08-29T05:43:13.170Z,8
2022-08-29T05:53:17.277Z,8
2022-08-29T06:03:27.069Z,9
2022-08-29T06:13:28.235Z,5
2022-08-29T06:23:34.596Z,9
2022-08-29T06:33:39.383Z,6
2022-08-29T06:43:47.742Z,4
2022-08-29T06:54:19.824Z,8
2022-08-29T07:04:15.002Z,7
2022-08-29T07:14:17.510Z,6
2022-08-29T07:24:25.523Z,6
2022-08-29T07:34:43.505Z,5
2022-08-29T07:44:36.865Z,5
2022-08-29T07:54:46.998Z,7
2022-08-29T08:25:06.907Z,5
2022-08-29T09:05:25.309Z,6
2022-08-29T09:15:33.534Z,6
2022-08-29T09:25:36.562Z,7
2022-08-29T09:35:56.173Z,6
2022-08-29T09:45:50.497Z,6
2022-08-29T09:56:28.289Z,8
2022-08-29T10:06:23.354Z,7
2022-08-29T10:16:37.731Z,5
2022-08-29T10:26:36.147Z,8
2022-08-29T10:36:42.536Z,8
2022-08-29T10:46:49.154Z,8
2022-08-29T10:56:55.722Z,7
2022-08-29T11:07:05.973Z,8
2022-08-29T11:17:07.150Z,10
2022-08-29T11:27:12.271Z,9
2022-08-29T11:37:19.914Z,10
2022-08-29T11:47:42.604Z,10
2022-08-29T11:57:35.787Z,8
2022-08-29T12:07:42.894Z,10
2022-08-29T12:18:03.567Z,11
2022-08-29T12:28:07.833Z,9
2022-08-29T12:38:12.599Z,10
2022-08-29T12:48:27.884Z,9
2022-08-29T12:58:27.186Z,9
2022-08-29T13:08:34.136Z,8
2022-08-29T13:19:10.731Z,10
2022-08-29T13:29:05.066Z,10
2022-08-29T13:39:09.409Z,11
2022-08-29T13:49:14.502Z,9
2022-08-29T13:59:19.893Z,8
2022-08-29T14:09:32.471Z,12
2022-08-29T14:19:32.427Z,8
2022-08-29T14:29:40.658Z,9
2022-08-29T14:39:50.393Z,9
2022-08-29T14:49:51.402Z,9
2022-08-29T14:59:56.070Z,10
2022-08-29T15:10:04.158Z,9
2022-08-29T15:21:35.663Z,10
2022-08-29T15:31:40.531Z,10
2022-08-29T15:41:45.853Z,11
2022-08-29T15:51:53.491Z,7
2022-08-29T16:01:59.309Z,8
2022-08-29T16:12:05.777Z,10
2022-08-29T16:22:11.872Z,10
2022-08-29T16:32:16.423Z,9
2022-08-29T16:42:21.772Z,10
2022-08-29T16:52:26.776Z,9
2022-08-29T17:02:33.576Z,14
2022-08-29T17:12:40.690Z,11
2022-08-29T17:22:43.383Z,11
2022-08-29T17:32:48.866Z,10
2022-08-29T17:42:57.201Z,11
2022-08-29T17:53:01.834Z,9
2022-08-29T19:03:40.891Z,16
2022-08-29T19:23:53.096Z,17
2022-08-29T19:33:58.934Z,12
2022-08-29T19:44:07.094Z,14
2022-08-29T19:54:16.853Z,16
2022-08-29T20:04:17.453Z,15
2022-08-29T20:14:27.256Z,16
2022-08-29T20:24:35.403Z,11
2022-08-29T20:34:34.588Z,13
2022-08-29T20:44:40.205Z,13
2022-08-29T20:54:46.693Z,12
2022-08-29T21:04:57.674Z,12
2022-08-29T21:15:00.635Z,13
2022-08-29T21:25:04.736Z,12
2022-08-29T21:35:11.014Z,11
2022-08-29T21:45:15.611Z,10
2022-08-29T21:55:25.107Z,13
2022-08-29T22:05:31.270Z,15
2022-08-29T22:15:33.261Z,13
2022-08-29T22:25:37.665Z,13
2022-08-29T22:35:43.119Z,12
2022-08-29T22:46:03.934Z,13
2022-08-29T22:56:09.194Z,13
2022-08-29T23:06:14.510Z,13
2022-08-29T23:16:23.403Z,13
2022-08-29T23:26:26.621Z,14
2022-08-29T23:36:32.148Z,13
2022-08-29T23:46:39.779Z,15
2022-08-29T23:56:42.514Z,14
